sensor_id;sensor_type;location;lat;lon;timestamp;P1;durP1;ratioP1;P2;durP2;ratioP2
43184;SDS011;28803;52.308;19.096;2023-05-10T00:00:55;7.20;;;2.40;;
43184;SDS011;28803;52.308;19.096;2023-05-10T00:03:22;4.20;;;1.98;;
43184;SDS011;28803;52.308;19.096;2023-05-10T00:05:52;4.85;;;2.15;;
43184;SDS011;28803;52.308;19.096;2023-05-10T00:08:19;4.88;;;2.28;;
43184;SDS011;28803;52.308;19.096;2023-05-10T00:10:47;5.57;;;2.15;;
43184;SDS011;28803;52.308;19.096;2023-05-10T00:13:14;5.03;;;2.38;;
43184;SDS011;28803;52.308;19.096;2023-05-10T00:15:41;5.32;;;2.20;;
43184;SDS011;28803;52.308;19.096;2023-05-10T00:18:08;3.53;;;2.42;;
43184;SDS011;28803;52.308;19.096;2023-05-10T00:20:35;7.50;;;2.47;;
43184;SDS011;28803;52.308;19.096;2023-05-10T00:23:02;4.60;;;2.35;;
43184;SDS011;28803;52.308;19.096;2023-05-10T00:25:30;6.05;;;2.90;;
43184;SDS011;28803;52.308;19.096;2023-05-10T00:27:57;4.68;;;2.45;;
43184;SDS011;28803;52.308;19.096;2023-05-10T00:30:25;4.47;;;2.47;;
43184;SDS011;28803;52.308;19.096;2023-05-10T00:32:52;6.65;;;2.55;;
43184;SDS011;28803;52.308;19.096;2023-05-10T00:35:19;6.18;;;2.50;;
43184;SDS011;28803;52.308;19.096;2023-05-10T00:37:47;5.88;;;2.55;;
43184;SDS011;28803;52.308;19.096;2023-05-10T00:40:15;6.13;;;2.60;;
43184;SDS011;28803;52.308;19.096;2023-05-10T00:42:42;5.18;;;1.80;;
43184;SDS011;28803;52.308;19.096;2023-05-10T00:45:10;3.13;;;2.00;;
43184;SDS011;28803;52.308;19.096;2023-05-10T00:47:38;5.00;;;2.15;;
43184;SDS011;28803;52.308;19.096;2023-05-10T00:50:06;4.13;;;2.13;;
43184;SDS011;28803;52.308;19.096;2023-05-10T00:52:34;5.95;;;2.50;;
43184;SDS011;28803;52.308;19.096;2023-05-10T00:55:01;4.00;;;2.38;;
43184;SDS011;28803;52.308;19.096;2023-05-10T00:57:29;5.47;;;3.17;;
43184;SDS011;28803;52.308;19.096;2023-05-10T00:59:57;5.30;;;2.55;;
43184;SDS011;28803;52.308;19.096;2023-05-10T01:02:25;4.25;;;2.13;;
43184;SDS011;28803;52.308;19.096;2023-05-10T01:04:54;7.15;;;2.30;;
43184;SDS011;28803;52.308;19.096;2023-05-10T01:07:21;3.17;;;1.83;;
43184;SDS011;28803;52.308;19.096;2023-05-10T01:09:50;5.30;;;1.95;;
43184;SDS011;28803;52.308;19.096;2023-05-10T01:12:17;4.13;;;2.35;;
43184;SDS011;28803;52.308;19.096;2023-05-10T01:14:44;5.25;;;2.10;;
43184;SDS011;28803;52.308;19.096;2023-05-10T01:17:12;5.50;;;2.78;;
43184;SDS011;28803;52.308;19.096;2023-05-10T01:19:40;4.10;;;2.10;;
43184;SDS011;28803;52.308;19.096;2023-05-10T01:33:42;4.80;;;2.00;;
43184;SDS011;28803;52.308;19.096;2023-05-10T01:36:43;4.75;;;2.28;;
43184;SDS011;28803;52.308;19.096;2023-05-10T01:39:21;4.15;;;2.17;;
43184;SDS011;28803;52.308;19.096;2023-05-10T01:42:08;4.25;;;1.90;;
43184;SDS011;28803;52.308;19.096;2023-05-10T01:44:53;4.75;;;2.35;;
43184;SDS011;28803;52.308;19.096;2023-05-10T01:47:44;3.22;;;1.75;;
43184;SDS011;28803;52.308;19.096;2023-05-10T01:50:18;5.47;;;1.48;;
43184;SDS011;28803;52.308;19.096;2023-05-10T01:52:53;7.07;;;2.78;;
43184;SDS011;28803;52.308;19.096;2023-05-10T01:55:23;4.57;;;2.63;;
43184;SDS011;28803;52.308;19.096;2023-05-10T01:58:00;4.10;;;2.22;;
43184;SDS011;28803;52.308;19.096;2023-05-10T02:00:34;6.97;;;2.42;;
43184;SDS011;28803;52.308;19.096;2023-05-10T02:03:04;5.57;;;2.35;;
43184;SDS011;28803;52.308;19.096;2023-05-10T02:05:34;7.18;;;2.45;;
43184;SDS011;28803;52.308;19.096;2023-05-10T02:08:05;6.13;;;2.95;;
43184;SDS011;28803;52.308;19.096;2023-05-10T02:10:34;6.53;;;2.35;;
43184;SDS011;28803;52.308;19.096;2023-05-10T02:13:02;5.70;;;2.13;;
43184;SDS011;28803;52.308;19.096;2023-05-10T02:15:30;4.60;;;2.17;;
43184;SDS011;28803;52.308;19.096;2023-05-10T02:17:59;5.57;;;2.55;;
43184;SDS011;28803;52.308;19.096;2023-05-10T02:20:28;4.18;;;2.35;;
43184;SDS011;28803;52.308;19.096;2023-05-10T02:22:58;8.40;;;2.40;;
43184;SDS011;28803;52.308;19.096;2023-05-10T02:25:27;8.07;;;2.63;;
43184;SDS011;28803;52.308;19.096;2023-05-10T02:27:56;5.63;;;2.45;;
43184;SDS011;28803;52.308;19.096;2023-05-10T02:30:26;3.38;;;2.03;;
43184;SDS011;28803;52.308;19.096;2023-05-10T02:32:54;6.88;;;2.50;;
43184;SDS011;28803;52.308;19.096;2023-05-10T02:35:22;4.22;;;2.30;;
43184;SDS011;28803;52.308;19.096;2023-05-10T02:37:50;5.03;;;2.42;;
43184;SDS011;28803;52.308;19.096;2023-05-10T02:40:18;5.07;;;2.78;;
43184;SDS011;28803;52.308;19.096;2023-05-10T02:42:48;5.50;;;2.58;;
43184;SDS011;28803;52.308;19.096;2023-05-10T02:45:19;5.15;;;2.13;;
43184;SDS011;28803;52.308;19.096;2023-05-10T02:47:50;6.93;;;2.50;;
43184;SDS011;28803;52.308;19.096;2023-05-10T02:50:17;6.15;;;2.60;;
43184;SDS011;28803;52.308;19.096;2023-05-10T02:52:46;5.85;;;3.08;;
43184;SDS011;28803;52.308;19.096;2023-05-10T02:55:16;4.00;;;2.08;;
43184;SDS011;28803;52.308;19.096;2023-05-10T02:57:52;6.82;;;2.15;;
43184;SDS011;28803;52.308;19.096;2023-05-10T03:00:26;5.68;;;2.17;;
43184;SDS011;28803;52.308;19.096;2023-05-10T03:02:53;5.70;;;3.13;;
43184;SDS011;28803;52.308;19.096;2023-05-10T03:05:21;3.85;;;2.15;;
43184;SDS011;28803;52.308;19.096;2023-05-10T03:07:48;4.35;;;2.30;;
43184;SDS011;28803;52.308;19.096;2023-05-10T03:10:16;5.18;;;2.20;;
43184;SDS011;28803;52.308;19.096;2023-05-10T03:16:08;4.38;;;2.35;;
43184;SDS011;28803;52.308;19.096;2023-05-10T03:21:11;6.45;;;2.35;;
43184;SDS011;28803;52.308;19.096;2023-05-10T03:23:49;5.72;;;2.15;;
43184;SDS011;28803;52.308;19.096;2023-05-10T03:26:22;4.90;;;2.60;;
43184;SDS011;28803;52.308;19.096;2023-05-10T03:28:52;4.45;;;2.47;;
43184;SDS011;28803;52.308;19.096;2023-05-10T03:31:20;6.00;;;2.40;;
43184;SDS011;28803;52.308;19.096;2023-05-10T03:33:48;3.88;;;1.92;;
43184;SDS011;28803;52.308;19.096;2023-05-10T03:36:17;7.40;;;2.85;;
43184;SDS011;28803;52.308;19.096;2023-05-10T03:38:45;4.30;;;2.20;;
43184;SDS011;28803;52.308;19.096;2023-05-10T03:41:12;5.55;;;2.83;;
43184;SDS011;28803;52.308;19.096;2023-05-10T03:43:39;5.95;;;1.90;;
43184;SDS011;28803;52.308;19.096;2023-05-10T03:46:07;6.75;;;2.88;;
43184;SDS011;28803;52.308;19.096;2023-05-10T03:48:35;6.22;;;1.95;;
43184;SDS011;28803;52.308;19.096;2023-05-10T03:51:02;5.13;;;2.22;;
43184;SDS011;28803;52.308;19.096;2023-05-10T03:53:29;4.13;;;1.92;;
43184;SDS011;28803;52.308;19.096;2023-05-10T03:55:56;4.78;;;2.47;;
43184;SDS011;28803;52.308;19.096;2023-05-10T03:58:24;5.15;;;2.28;;
43184;SDS011;28803;52.308;19.096;2023-05-10T04:00:51;4.47;;;2.33;;
43184;SDS011;28803;52.308;19.096;2023-05-10T04:03:19;2.70;;;1.65;;
43184;SDS011;28803;52.308;19.096;2023-05-10T04:05:46;5.45;;;2.75;;
43184;SDS011;28803;52.308;19.096;2023-05-10T04:08:13;4.05;;;2.30;;
43184;SDS011;28803;52.308;19.096;2023-05-10T04:10:42;4.78;;;2.40;;
43184;SDS011;28803;52.308;19.096;2023-05-10T04:13:10;6.22;;;3.03;;
43184;SDS011;28803;52.308;19.096;2023-05-10T04:15:37;4.30;;;2.13;;
43184;SDS011;28803;52.308;19.096;2023-05-10T04:18:05;4.90;;;2.08;;
43184;SDS011;28803;52.308;19.096;2023-05-10T04:20:34;7.38;;;2.58;;
43184;SDS011;28803;52.308;19.096;2023-05-10T04:23:01;8.40;;;2.17;;
43184;SDS011;28803;52.308;19.096;2023-05-10T04:25:28;6.78;;;2.72;;
43184;SDS011;28803;52.308;19.096;2023-05-10T04:27:56;4.07;;;2.33;;
43184;SDS011;28803;52.308;19.096;2023-05-10T04:30:23;4.13;;;2.08;;
43184;SDS011;28803;52.308;19.096;2023-05-10T04:32:50;5.32;;;1.98;;
43184;SDS011;28803;52.308;19.096;2023-05-10T04:35:17;6.43;;;2.70;;
43184;SDS011;28803;52.308;19.096;2023-05-10T04:37:45;6.50;;;2.92;;
43184;SDS011;28803;52.308;19.096;2023-05-10T04:40:12;4.88;;;2.08;;
43184;SDS011;28803;52.308;19.096;2023-05-10T04:42:40;3.25;;;2.10;;
43184;SDS011;28803;52.308;19.096;2023-05-10T04:45:10;4.30;;;2.33;;
43184;SDS011;28803;52.308;19.096;2023-05-10T04:47:37;3.78;;;2.28;;
43184;SDS011;28803;52.308;19.096;2023-05-10T04:50:04;4.38;;;2.08;;
43184;SDS011;28803;52.308;19.096;2023-05-10T04:52:33;5.82;;;2.10;;
43184;SDS011;28803;52.308;19.096;2023-05-10T04:55:00;5.13;;;2.45;;
43184;SDS011;28803;52.308;19.096;2023-05-10T04:57:27;6.47;;;2.35;;
43184;SDS011;28803;52.308;19.096;2023-05-10T04:59:54;7.05;;;2.75;;
43184;SDS011;28803;52.308;19.096;2023-05-10T05:02:22;3.97;;;2.20;;
43184;SDS011;28803;52.308;19.096;2023-05-10T05:04:50;4.22;;;2.05;;
43184;SDS011;28803;52.308;19.096;2023-05-10T05:07:17;4.47;;;2.50;;
43184;SDS011;28803;52.308;19.096;2023-05-10T05:09:44;3.40;;;1.95;;
43184;SDS011;28803;52.308;19.096;2023-05-10T05:12:12;5.20;;;2.03;;
43184;SDS011;28803;52.308;19.096;2023-05-10T05:14:40;3.13;;;1.77;;
43184;SDS011;28803;52.308;19.096;2023-05-10T05:17:07;4.63;;;2.00;;
43184;SDS011;28803;52.308;19.096;2023-05-10T05:19:35;4.72;;;2.28;;
43184;SDS011;28803;52.308;19.096;2023-05-10T05:22:02;4.93;;;2.60;;
43184;SDS011;28803;52.308;19.096;2023-05-10T05:24:29;5.93;;;2.75;;
43184;SDS011;28803;52.308;19.096;2023-05-10T05:27:03;5.60;;;2.38;;
43184;SDS011;28803;52.308;19.096;2023-05-10T05:29:30;5.53;;;2.83;;
43184;SDS011;28803;52.308;19.096;2023-05-10T05:31:57;4.15;;;1.92;;
43184;SDS011;28803;52.308;19.096;2023-05-10T05:34:24;5.95;;;2.67;;
43184;SDS011;28803;52.308;19.096;2023-05-10T05:36:52;5.72;;;1.92;;
43184;SDS011;28803;52.308;19.096;2023-05-10T05:39:20;4.43;;;2.22;;
43184;SDS011;28803;52.308;19.096;2023-05-10T05:41:48;5.05;;;2.25;;
43184;SDS011;28803;52.308;19.096;2023-05-10T05:44:15;3.97;;;1.98;;
43184;SDS011;28803;52.308;19.096;2023-05-10T05:46:42;4.85;;;2.25;;
43184;SDS011;28803;52.308;19.096;2023-05-10T05:49:09;6.78;;;2.45;;
43184;SDS011;28803;52.308;19.096;2023-05-10T05:51:36;4.97;;;2.10;;
43184;SDS011;28803;52.308;19.096;2023-05-10T05:54:03;4.55;;;2.28;;
43184;SDS011;28803;52.308;19.096;2023-05-10T05:56:32;9.93;;;1.92;;
43184;SDS011;28803;52.308;19.096;2023-05-10T05:58:59;4.75;;;2.25;;
43184;SDS011;28803;52.308;19.096;2023-05-10T06:01:27;5.50;;;2.60;;
43184;SDS011;28803;52.308;19.096;2023-05-10T06:03:54;5.13;;;2.67;;
43184;SDS011;28803;52.308;19.096;2023-05-10T06:06:22;5.20;;;1.85;;
43184;SDS011;28803;52.308;19.096;2023-05-10T06:08:49;4.05;;;2.17;;
43184;SDS011;28803;52.308;19.096;2023-05-10T06:11:17;6.10;;;2.22;;
43184;SDS011;28803;52.308;19.096;2023-05-10T06:13:44;3.75;;;2.08;;
43184;SDS011;28803;52.308;19.096;2023-05-10T06:16:12;3.85;;;2.20;;
43184;SDS011;28803;52.308;19.096;2023-05-10T06:18:40;4.25;;;1.85;;
43184;SDS011;28803;52.308;19.096;2023-05-10T06:21:07;3.50;;;2.08;;
43184;SDS011;28803;52.308;19.096;2023-05-10T06:23:35;6.43;;;2.47;;
43184;SDS011;28803;52.308;19.096;2023-05-10T06:26:03;6.82;;;1.98;;
43184;SDS011;28803;52.308;19.096;2023-05-10T06:28:30;3.90;;;2.30;;
43184;SDS011;28803;52.308;19.096;2023-05-10T06:30:59;6.80;;;2.33;;
43184;SDS011;28803;52.308;19.096;2023-05-10T06:33:26;4.10;;;1.95;;
43184;SDS011;28803;52.308;19.096;2023-05-10T06:35:54;4.63;;;2.10;;
43184;SDS011;28803;52.308;19.096;2023-05-10T06:38:21;4.13;;;1.80;;
43184;SDS011;28803;52.308;19.096;2023-05-10T06:40:48;4.10;;;1.90;;
43184;SDS011;28803;52.308;19.096;2023-05-10T06:43:15;6.78;;;2.25;;
43184;SDS011;28803;52.308;19.096;2023-05-10T06:45:43;3.80;;;2.47;;
43184;SDS011;28803;52.308;19.096;2023-05-10T06:48:10;5.57;;;1.83;;
43184;SDS011;28803;52.308;19.096;2023-05-10T06:50:37;4.18;;;1.60;;
43184;SDS011;28803;52.308;19.096;2023-05-10T06:53:04;4.32;;;1.98;;
43184;SDS011;28803;52.308;19.096;2023-05-10T06:55:32;3.00;;;1.45;;
43184;SDS011;28803;52.308;19.096;2023-05-10T06:57:59;3.05;;;1.67;;
43184;SDS011;28803;52.308;19.096;2023-05-10T07:00:26;5.50;;;1.95;;
43184;SDS011;28803;52.308;19.096;2023-05-10T07:02:53;2.72;;;1.80;;
43184;SDS011;28803;52.308;19.096;2023-05-10T07:05:21;8.77;;;1.90;;
43184;SDS011;28803;52.308;19.096;2023-05-10T07:07:49;3.22;;;1.60;;
43184;SDS011;28803;52.308;19.096;2023-05-10T07:10:16;4.75;;;1.52;;
43184;SDS011;28803;52.308;19.096;2023-05-10T07:12:44;5.10;;;1.88;;
43184;SDS011;28803;52.308;19.096;2023-05-10T07:15:11;5.38;;;1.65;;
43184;SDS011;28803;52.308;19.096;2023-05-10T07:17:38;4.97;;;1.60;;
43184;SDS011;28803;52.308;19.096;2023-05-10T07:20:08;4.40;;;1.50;;
43184;SDS011;28803;52.308;19.096;2023-05-10T07:22:36;3.90;;;1.50;;
43184;SDS011;28803;52.308;19.096;2023-05-10T07:25:03;4.50;;;1.80;;
43184;SDS011;28803;52.308;19.096;2023-05-10T07:27:31;4.30;;;1.15;;
43184;SDS011;28803;52.308;19.096;2023-05-10T07:29:59;5.50;;;1.42;;
43184;SDS011;28803;52.308;19.096;2023-05-10T07:32:27;3.67;;;1.55;;
43184;SDS011;28803;52.308;19.096;2023-05-10T07:34:54;4.03;;;1.67;;
43184;SDS011;28803;52.308;19.096;2023-05-10T07:37:21;6.50;;;1.77;;
43184;SDS011;28803;52.308;19.096;2023-05-10T07:39:48;4.22;;;1.30;;
43184;SDS011;28803;52.308;19.096;2023-05-10T07:42:15;3.13;;;1.42;;
43184;SDS011;28803;52.308;19.096;2023-05-10T07:44:43;4.28;;;1.20;;
43184;SDS011;28803;52.308;19.096;2023-05-10T07:47:10;3.60;;;1.90;;
43184;SDS011;28803;52.308;19.096;2023-05-10T07:49:38;4.50;;;1.45;;
43184;SDS011;28803;52.308;19.096;2023-05-10T07:52:04;7.20;;;1.50;;
43184;SDS011;28803;52.308;19.096;2023-05-10T07:54:32;2.97;;;1.80;;
43184;SDS011;28803;52.308;19.096;2023-05-10T07:57:00;5.07;;;1.70;;
43184;SDS011;28803;52.308;19.096;2023-05-10T07:59:27;4.28;;;1.70;;
43184;SDS011;28803;52.308;19.096;2023-05-10T08:01:54;4.18;;;1.40;;
43184;SDS011;28803;52.308;19.096;2023-05-10T08:04:22;3.65;;;1.70;;
43184;SDS011;28803;52.308;19.096;2023-05-10T08:06:50;2.97;;;1.92;;
43184;SDS011;28803;52.308;19.096;2023-05-10T08:09:17;4.13;;;1.95;;
43184;SDS011;28803;52.308;19.096;2023-05-10T08:11:50;2.63;;;1.67;;
43184;SDS011;28803;52.308;19.096;2023-05-10T08:14:17;3.60;;;1.38;;
43184;SDS011;28803;52.308;19.096;2023-05-10T08:16:44;3.17;;;1.48;;
43184;SDS011;28803;52.308;19.096;2023-05-10T08:19:13;3.55;;;1.60;;
43184;SDS011;28803;52.308;19.096;2023-05-10T08:21:40;2.05;;;1.13;;
43184;SDS011;28803;52.308;19.096;2023-05-10T08:24:09;5.05;;;1.50;;
43184;SDS011;28803;52.308;19.096;2023-05-10T08:26:36;6.07;;;1.70;;
43184;SDS011;28803;52.308;19.096;2023-05-10T08:29:03;2.38;;;1.23;;
43184;SDS011;28803;52.308;19.096;2023-05-10T08:31:30;3.60;;;1.23;;
43184;SDS011;28803;52.308;19.096;2023-05-10T08:33:58;2.63;;;1.45;;
43184;SDS011;28803;52.308;19.096;2023-05-10T08:36:25;2.65;;;1.40;;
43184;SDS011;28803;52.308;19.096;2023-05-10T08:38:53;3.35;;;1.30;;
43184;SDS011;28803;52.308;19.096;2023-05-10T08:41:21;4.13;;;1.70;;
43184;SDS011;28803;52.308;19.096;2023-05-10T08:43:51;3.33;;;1.20;;
43184;SDS011;28803;52.308;19.096;2023-05-10T08:46:20;2.92;;;1.45;;
43184;SDS011;28803;52.308;19.096;2023-05-10T08:48:49;3.53;;;1.40;;
43184;SDS011;28803;52.308;19.096;2023-05-10T08:51:19;2.47;;;1.20;;
43184;SDS011;28803;52.308;19.096;2023-05-10T08:53:53;3.97;;;1.20;;
43184;SDS011;28803;52.308;19.096;2023-05-10T08:56:21;3.97;;;1.70;;
43184;SDS011;28803;52.308;19.096;2023-05-10T08:58:48;3.00;;;1.42;;
43184;SDS011;28803;52.308;19.096;2023-05-10T09:01:16;6.10;;;1.83;;
43184;SDS011;28803;52.308;19.096;2023-05-10T09:03:46;6.45;;;1.40;;
43184;SDS011;28803;52.308;19.096;2023-05-10T09:06:14;4.75;;;1.45;;
43184;SDS011;28803;52.308;19.096;2023-05-10T09:08:42;2.33;;;0.90;;
43184;SDS011;28803;52.308;19.096;2023-05-10T09:11:10;2.53;;;1.30;;
43184;SDS011;28803;52.308;19.096;2023-05-10T09:13:38;7.45;;;0.93;;
43184;SDS011;28803;52.308;19.096;2023-05-10T09:16:06;3.00;;;1.15;;
43184;SDS011;28803;52.308;19.096;2023-05-10T09:18:47;4.28;;;1.10;;
43184;SDS011;28803;52.308;19.096;2023-05-10T09:21:16;5.22;;;1.15;;
43184;SDS011;28803;52.308;19.096;2023-05-10T09:23:44;4.80;;;1.20;;
43184;SDS011;28803;52.308;19.096;2023-05-10T09:26:14;4.63;;;1.58;;
43184;SDS011;28803;52.308;19.096;2023-05-10T09:28:55;5.35;;;1.00;;
43184;SDS011;28803;52.308;19.096;2023-05-10T09:34:30;1.73;;;1.00;;
43184;SDS011;28803;52.308;19.096;2023-05-10T09:36:59;6.57;;;1.80;;
43184;SDS011;28803;52.308;19.096;2023-05-10T09:39:34;1.85;;;1.00;;
43184;SDS011;28803;52.308;19.096;2023-05-10T09:42:06;3.28;;;1.02;;
43184;SDS011;28803;52.308;19.096;2023-05-10T09:44:35;2.42;;;1.00;;
43184;SDS011;28803;52.308;19.096;2023-05-10T09:47:03;2.25;;;1.25;;
43184;SDS011;28803;52.308;19.096;2023-05-10T09:49:31;4.50;;;1.13;;
43184;SDS011;28803;52.308;19.096;2023-05-10T09:52:00;3.97;;;0.82;;
43184;SDS011;28803;52.308;19.096;2023-05-10T09:54:29;3.65;;;1.15;;
43184;SDS011;28803;52.308;19.096;2023-05-10T09:56:57;6.13;;;1.25;;
43184;SDS011;28803;52.308;19.096;2023-05-10T09:59:25;4.63;;;1.42;;
43184;SDS011;28803;52.308;19.096;2023-05-10T10:01:57;2.42;;;1.08;;
43184;SDS011;28803;52.308;19.096;2023-05-10T10:04:26;3.70;;;1.07;;
43184;SDS011;28803;52.308;19.096;2023-05-10T10:07:01;2.83;;;0.70;;
43184;SDS011;28803;52.308;19.096;2023-05-10T10:09:29;3.50;;;1.60;;
43184;SDS011;28803;52.308;19.096;2023-05-10T10:11:57;3.20;;;1.33;;
43184;SDS011;28803;52.308;19.096;2023-05-10T10:14:24;3.08;;;1.45;;
43184;SDS011;28803;52.308;19.096;2023-05-10T10:16:52;4.45;;;1.23;;
43184;SDS011;28803;52.308;19.096;2023-05-10T10:19:34;3.88;;;1.15;;
43184;SDS011;28803;52.308;19.096;2023-05-10T10:22:03;3.20;;;1.30;;
43184;SDS011;28803;52.308;19.096;2023-05-10T10:24:30;5.25;;;1.45;;
43184;SDS011;28803;52.308;19.096;2023-05-10T10:27:07;4.10;;;1.00;;
43184;SDS011;28803;52.308;19.096;2023-05-10T10:35:42;2.78;;;1.20;;
43184;SDS011;28803;52.308;19.096;2023-05-10T10:38:12;2.13;;;1.20;;
43184;SDS011;28803;52.308;19.096;2023-05-10T10:40:40;3.33;;;1.38;;
43184;SDS011;28803;52.308;19.096;2023-05-10T10:43:26;2.70;;;0.93;;
43184;SDS011;28803;52.308;19.096;2023-05-10T10:48:48;3.22;;;1.27;;
43184;SDS011;28803;52.308;19.096;2023-05-10T10:51:18;2.90;;;1.20;;
43184;SDS011;28803;52.308;19.096;2023-05-10T10:53:45;2.05;;;1.27;;
43184;SDS011;28803;52.308;19.096;2023-05-10T10:56:14;3.13;;;1.30;;
43184;SDS011;28803;52.308;19.096;2023-05-10T10:58:48;4.10;;;1.13;;
43184;SDS011;28803;52.308;19.096;2023-05-10T11:01:18;4.03;;;1.23;;
43184;SDS011;28803;52.308;19.096;2023-05-10T11:06:30;2.80;;;1.35;;
43184;SDS011;28803;52.308;19.096;2023-05-10T11:09:05;2.92;;;1.42;;
43184;SDS011;28803;52.308;19.096;2023-05-10T11:11:37;3.47;;;1.30;;
43184;SDS011;28803;52.308;19.096;2023-05-10T11:14:19;1.77;;;1.10;;
43184;SDS011;28803;52.308;19.096;2023-05-10T11:16:48;3.00;;;1.13;;
43184;SDS011;28803;52.308;19.096;2023-05-10T11:19:16;3.60;;;1.08;;
43184;SDS011;28803;52.308;19.096;2023-05-10T11:22:11;3.10;;;1.25;;
43184;SDS011;28803;52.308;19.096;2023-05-10T11:24:55;5.25;;;1.45;;
43184;SDS011;28803;52.308;19.096;2023-05-10T11:27:24;2.05;;;1.05;;
43184;SDS011;28803;52.308;19.096;2023-05-10T11:29:52;5.55;;;1.20;;
43184;SDS011;28803;52.308;19.096;2023-05-10T11:32:19;3.20;;;1.20;;
43184;SDS011;28803;52.308;19.096;2023-05-10T11:34:47;2.03;;;1.15;;
43184;SDS011;28803;52.308;19.096;2023-05-10T11:37:15;2.30;;;1.10;;
43184;SDS011;28803;52.308;19.096;2023-05-10T11:39:45;4.70;;;1.10;;
43184;SDS011;28803;52.308;19.096;2023-05-10T11:42:15;2.17;;;1.02;;
43184;SDS011;28803;52.308;19.096;2023-05-10T11:44:45;4.35;;;1.23;;
43184;SDS011;28803;52.308;19.096;2023-05-10T11:47:13;1.35;;;0.80;;
43184;SDS011;28803;52.308;19.096;2023-05-10T11:49:43;3.50;;;1.05;;
43184;SDS011;28803;52.308;19.096;2023-05-10T11:52:11;5.00;;;1.20;;
43184;SDS011;28803;52.308;19.096;2023-05-10T11:54:45;2.80;;;1.30;;
43184;SDS011;28803;52.308;19.096;2023-05-10T11:57:19;5.97;;;1.05;;
43184;SDS011;28803;52.308;19.096;2023-05-10T11:59:47;3.95;;;0.75;;
43184;SDS011;28803;52.308;19.096;2023-05-10T12:02:20;3.22;;;1.20;;
43184;SDS011;28803;52.308;19.096;2023-05-10T12:04:49;2.50;;;1.05;;
43184;SDS011;28803;52.308;19.096;2023-05-10T12:07:17;3.55;;;1.10;;
43184;SDS011;28803;52.308;19.096;2023-05-10T12:09:44;4.65;;;1.30;;
43184;SDS011;28803;52.308;19.096;2023-05-10T12:12:35;2.97;;;1.45;;
43184;SDS011;28803;52.308;19.096;2023-05-10T12:15:18;1.45;;;0.80;;
43184;SDS011;28803;52.308;19.096;2023-05-10T12:17:46;3.70;;;1.15;;
43184;SDS011;28803;52.308;19.096;2023-05-10T12:20:21;4.85;;;0.80;;
43184;SDS011;28803;52.308;19.096;2023-05-10T12:22:51;1.27;;;0.68;;
43184;SDS011;28803;52.308;19.096;2023-05-10T12:25:21;1.90;;;0.90;;
43184;SDS011;28803;52.308;19.096;2023-05-10T12:27:53;1.83;;;1.00;;
43184;SDS011;28803;52.308;19.096;2023-05-10T12:30:40;1.75;;;0.90;;
43184;SDS011;28803;52.308;19.096;2023-05-10T12:35:49;2.17;;;1.20;;
43184;SDS011;28803;52.308;19.096;2023-05-10T12:41:16;2.72;;;1.13;;
43184;SDS011;28803;52.308;19.096;2023-05-10T12:43:44;2.50;;;1.02;;
43184;SDS011;28803;52.308;19.096;2023-05-10T12:46:15;2.40;;;1.00;;
43184;SDS011;28803;52.308;19.096;2023-05-10T12:48:44;3.75;;;1.10;;
43184;SDS011;28803;52.308;19.096;2023-05-10T12:51:13;4.50;;;1.25;;
43184;SDS011;28803;52.308;19.096;2023-05-10T12:53:43;3.05;;;0.88;;
43184;SDS011;28803;52.308;19.096;2023-05-10T12:56:15;2.15;;;1.05;;
43184;SDS011;28803;52.308;19.096;2023-05-10T12:58:42;3.72;;;1.42;;
43184;SDS011;28803;52.308;19.096;2023-05-10T13:01:15;3.65;;;0.90;;
43184;SDS011;28803;52.308;19.096;2023-05-10T13:03:42;3.50;;;1.17;;
43184;SDS011;28803;52.308;19.096;2023-05-10T13:06:13;2.83;;;1.10;;
43184;SDS011;28803;52.308;19.096;2023-05-10T13:08:41;4.50;;;1.15;;
43184;SDS011;28803;52.308;19.096;2023-05-10T13:11:08;1.80;;;1.27;;
43184;SDS011;28803;52.308;19.096;2023-05-10T13:13:35;2.72;;;0.88;;
43184;SDS011;28803;52.308;19.096;2023-05-10T13:16:03;1.77;;;0.73;;
43184;SDS011;28803;52.308;19.096;2023-05-10T13:18:30;2.38;;;1.00;;
43184;SDS011;28803;52.308;19.096;2023-05-10T13:20:58;2.53;;;1.20;;
43184;SDS011;28803;52.308;19.096;2023-05-10T13:23:25;2.00;;;1.02;;
43184;SDS011;28803;52.308;19.096;2023-05-10T13:25:52;4.18;;;0.90;;
43184;SDS011;28803;52.308;19.096;2023-05-10T13:28:20;2.03;;;0.80;;
43184;SDS011;28803;52.308;19.096;2023-05-10T13:30:47;2.03;;;1.00;;
43184;SDS011;28803;52.308;19.096;2023-05-10T13:33:14;1.98;;;1.00;;
43184;SDS011;28803;52.308;19.096;2023-05-10T13:35:42;2.17;;;0.82;;
43184;SDS011;28803;52.308;19.096;2023-05-10T13:38:09;3.20;;;0.80;;
43184;SDS011;28803;52.308;19.096;2023-05-10T13:40:37;3.97;;;1.10;;
43184;SDS011;28803;52.308;19.096;2023-05-10T13:43:04;4.85;;;0.75;;
43184;SDS011;28803;52.308;19.096;2023-05-10T13:45:31;4.38;;;0.88;;
43184;SDS011;28803;52.308;19.096;2023-05-10T13:47:59;3.50;;;1.08;;
43184;SDS011;28803;52.308;19.096;2023-05-10T13:50:27;2.13;;;0.65;;
43184;SDS011;28803;52.308;19.096;2023-05-10T13:52:54;1.45;;;0.70;;
43184;SDS011;28803;52.308;19.096;2023-05-10T13:58:45;1.98;;;0.85;;
43184;SDS011;28803;52.308;19.096;2023-05-10T14:01:13;4.55;;;1.23;;
43184;SDS011;28803;52.308;19.096;2023-05-10T14:03:41;2.15;;;1.13;;
43184;SDS011;28803;52.308;19.096;2023-05-10T14:06:08;1.83;;;0.95;;
43184;SDS011;28803;52.308;19.096;2023-05-10T14:08:35;3.22;;;0.90;;
43184;SDS011;28803;52.308;19.096;2023-05-10T14:11:03;3.45;;;0.77;;
43184;SDS011;28803;52.308;19.096;2023-05-10T14:13:30;1.40;;;0.98;;
43184;SDS011;28803;52.308;19.096;2023-05-10T14:15:58;2.63;;;0.95;;
43184;SDS011;28803;52.308;19.096;2023-05-10T14:18:27;2.42;;;1.00;;
43184;SDS011;28803;52.308;19.096;2023-05-10T14:20:55;3.30;;;1.00;;
43184;SDS011;28803;52.308;19.096;2023-05-10T14:23:22;2.42;;;0.85;;
43184;SDS011;28803;52.308;19.096;2023-05-10T14:25:53;4.45;;;1.55;;
43184;SDS011;28803;52.308;19.096;2023-05-10T14:28:20;1.38;;;0.70;;
43184;SDS011;28803;52.308;19.096;2023-05-10T14:30:49;1.45;;;0.70;;
43184;SDS011;28803;52.308;19.096;2023-05-10T14:33:16;2.00;;;0.80;;
43184;SDS011;28803;52.308;19.096;2023-05-10T14:35:44;1.25;;;0.65;;
43184;SDS011;28803;52.308;19.096;2023-05-10T14:38:13;1.65;;;0.50;;
43184;SDS011;28803;52.308;19.096;2023-05-10T14:40:41;1.55;;;0.68;;
43184;SDS011;28803;52.308;19.096;2023-05-10T14:43:09;1.50;;;0.80;;
43184;SDS011;28803;52.308;19.096;2023-05-10T14:45:37;1.70;;;0.70;;
43184;SDS011;28803;52.308;19.096;2023-05-10T14:48:04;4.13;;;1.17;;
43184;SDS011;28803;52.308;19.096;2023-05-10T14:50:32;5.05;;;0.80;;
43184;SDS011;28803;52.308;19.096;2023-05-10T14:56:04;1.85;;;0.90;;
43184;SDS011;28803;52.308;19.096;2023-05-10T14:58:31;4.70;;;1.17;;
43184;SDS011;28803;52.308;19.096;2023-05-10T15:01:00;3.13;;;0.93;;
43184;SDS011;28803;52.308;19.096;2023-05-10T15:03:28;1.85;;;0.90;;
43184;SDS011;28803;52.308;19.096;2023-05-10T15:05:56;2.15;;;0.93;;
43184;SDS011;28803;52.308;19.096;2023-05-10T15:08:24;1.58;;;0.98;;
43184;SDS011;28803;52.308;19.096;2023-05-10T15:10:52;5.50;;;1.35;;
43184;SDS011;28803;52.308;19.096;2023-05-10T15:13:23;2.53;;;0.90;;
43184;SDS011;28803;52.308;19.096;2023-05-10T15:15:50;2.03;;;1.05;;
43184;SDS011;28803;52.308;19.096;2023-05-10T15:18:17;1.33;;;0.88;;
43184;SDS011;28803;52.308;19.096;2023-05-10T15:20:45;5.65;;;1.00;;
43184;SDS011;28803;52.308;19.096;2023-05-10T15:23:12;5.68;;;0.93;;
43184;SDS011;28803;52.308;19.096;2023-05-10T15:25:39;1.80;;;1.10;;
43184;SDS011;28803;52.308;19.096;2023-05-10T15:28:07;1.85;;;0.68;;